< < Back
Terminal Aerodrome Forecast


Current Version              Previous Versions:   1  2  3  4  5  6  7  8  9  

Terminal Aerodrome Forecast

016
FTUS44 KHUN 241720
TAFHSV
TAF
KHSV 241720Z 2418/2518 01006KT P6SM SCT060
     FM250000 VRB04KT P6SM FEW250
     FM251700 VRB04KT P6SM SCT050=



Latest METAR

203
SAUS80 KWBC 251000 RRB
MTRHSV
METAR KHSV 250953Z AUTO 32003KT 10SM CLR 19/17 A3005 RMK AO2 SLP167
T01890167


USA.gov is the U.S. government's official web portal to all federal, state and local government web resources and services.